sensor_id;sensor_type;location;lat;lon;timestamp;P1;durP1;ratioP1;P2;durP2;ratioP2
9218;SDS011;4644;48.858;9.184;2023-04-06T00:00:50;10.23;;;7.57;;
9218;SDS011;4644;48.858;9.184;2023-04-06T00:03:17;12.27;;;7.87;;
9218;SDS011;4644;48.858;9.184;2023-04-06T00:05:46;11.10;;;7.80;;
9218;SDS011;4644;48.858;9.184;2023-04-06T00:08:13;12.33;;;8.03;;
9218;SDS011;4644;48.858;9.184;2023-04-06T00:10:40;13.27;;;9.30;;
9218;SDS011;4644;48.858;9.184;2023-04-06T00:13:08;14.67;;;9.37;;
9218;SDS011;4644;48.858;9.184;2023-04-06T00:15:35;12.30;;;9.30;;
9218;SDS011;4644;48.858;9.184;2023-04-06T00:18:03;12.23;;;8.53;;
9218;SDS011;4644;48.858;9.184;2023-04-06T00:20:31;12.73;;;9.30;;
9218;SDS011;4644;48.858;9.184;2023-04-06T00:22:58;14.30;;;7.53;;
9218;SDS011;4644;48.858;9.184;2023-04-06T00:25:25;9.53;;;7.77;;
9218;SDS011;4644;48.858;9.184;2023-04-06T00:27:52;11.87;;;8.37;;
9218;SDS011;4644;48.858;9.184;2023-04-06T00:30:20;14.23;;;7.93;;
9218;SDS011;4644;48.858;9.184;2023-04-06T00:32:47;11.13;;;7.90;;
9218;SDS011;4644;48.858;9.184;2023-04-06T00:35:15;10.77;;;8.10;;
9218;SDS011;4644;48.858;9.184;2023-04-06T00:37:46;11.00;;;8.67;;
9218;SDS011;4644;48.858;9.184;2023-04-06T00:40:13;11.10;;;7.33;;
9218;SDS011;4644;48.858;9.184;2023-04-06T00:42:41;13.17;;;7.17;;
9218;SDS011;4644;48.858;9.184;2023-04-06T00:45:08;10.73;;;7.77;;
9218;SDS011;4644;48.858;9.184;2023-04-06T00:47:36;12.53;;;8.00;;
9218;SDS011;4644;48.858;9.184;2023-04-06T00:50:04;12.53;;;7.90;;
9218;SDS011;4644;48.858;9.184;2023-04-06T00:52:34;10.13;;;7.70;;
9218;SDS011;4644;48.858;9.184;2023-04-06T00:55:01;9.77;;;7.87;;
9218;SDS011;4644;48.858;9.184;2023-04-06T00:57:29;16.17;;;8.47;;
9218;SDS011;4644;48.858;9.184;2023-04-06T00:59:57;9.40;;;7.13;;
9218;SDS011;4644;48.858;9.184;2023-04-06T01:02:24;11.00;;;7.63;;
9218;SDS011;4644;48.858;9.184;2023-04-06T01:04:51;9.83;;;7.23;;
9218;SDS011;4644;48.858;9.184;2023-04-06T01:07:19;9.37;;;7.20;;
9218;SDS011;4644;48.858;9.184;2023-04-06T01:09:47;9.37;;;7.57;;
9218;SDS011;4644;48.858;9.184;2023-04-06T01:12:14;14.30;;;8.17;;
9218;SDS011;4644;48.858;9.184;2023-04-06T01:14:42;11.27;;;7.67;;
9218;SDS011;4644;48.858;9.184;2023-04-06T01:17:09;12.43;;;7.27;;
9218;SDS011;4644;48.858;9.184;2023-04-06T01:19:36;12.27;;;7.60;;
9218;SDS011;4644;48.858;9.184;2023-04-06T01:22:05;12.37;;;7.33;;
9218;SDS011;4644;48.858;9.184;2023-04-06T01:24:34;11.10;;;7.60;;
9218;SDS011;4644;48.858;9.184;2023-04-06T01:27:01;13.77;;;7.67;;
9218;SDS011;4644;48.858;9.184;2023-04-06T01:29:28;8.93;;;7.63;;
9218;SDS011;4644;48.858;9.184;2023-04-06T01:31:55;10.73;;;7.80;;
9218;SDS011;4644;48.858;9.184;2023-04-06T01:34:22;9.57;;;7.33;;
9218;SDS011;4644;48.858;9.184;2023-04-06T01:36:49;10.20;;;7.60;;
9218;SDS011;4644;48.858;9.184;2023-04-06T01:39:16;9.80;;;7.57;;
9218;SDS011;4644;48.858;9.184;2023-04-06T01:41:48;10.03;;;7.40;;
9218;SDS011;4644;48.858;9.184;2023-04-06T01:44:16;9.57;;;7.20;;
9218;SDS011;4644;48.858;9.184;2023-04-06T01:46:44;9.83;;;6.93;;
9218;SDS011;4644;48.858;9.184;2023-04-06T01:49:11;11.27;;;7.00;;
9218;SDS011;4644;48.858;9.184;2023-04-06T01:51:38;10.23;;;7.30;;
9218;SDS011;4644;48.858;9.184;2023-04-06T01:54:05;8.23;;;6.37;;
9218;SDS011;4644;48.858;9.184;2023-04-06T01:56:32;8.77;;;6.83;;
9218;SDS011;4644;48.858;9.184;2023-04-06T01:59:01;10.17;;;7.00;;
9218;SDS011;4644;48.858;9.184;2023-04-06T02:01:29;9.63;;;7.10;;
9218;SDS011;4644;48.858;9.184;2023-04-06T02:03:56;13.90;;;7.07;;
9218;SDS011;4644;48.858;9.184;2023-04-06T02:06:23;9.47;;;7.20;;
9218;SDS011;4644;48.858;9.184;2023-04-06T02:08:50;10.90;;;6.80;;
9218;SDS011;4644;48.858;9.184;2023-04-06T02:11:17;11.07;;;7.17;;
9218;SDS011;4644;48.858;9.184;2023-04-06T02:13:44;11.40;;;7.00;;
9218;SDS011;4644;48.858;9.184;2023-04-06T02:16:13;13.93;;;7.33;;
9218;SDS011;4644;48.858;9.184;2023-04-06T02:18:41;9.30;;;6.87;;
9218;SDS011;4644;48.858;9.184;2023-04-06T02:21:08;7.73;;;6.63;;
9218;SDS011;4644;48.858;9.184;2023-04-06T02:23:35;10.60;;;7.33;;
9218;SDS011;4644;48.858;9.184;2023-04-06T02:26:02;9.53;;;7.13;;
9218;SDS011;4644;48.858;9.184;2023-04-06T02:28:29;11.03;;;7.50;;
9218;SDS011;4644;48.858;9.184;2023-04-06T02:30:56;10.23;;;7.43;;
9218;SDS011;4644;48.858;9.184;2023-04-06T02:33:25;9.13;;;7.03;;
9218;SDS011;4644;48.858;9.184;2023-04-06T02:35:53;10.43;;;6.93;;
9218;SDS011;4644;48.858;9.184;2023-04-06T02:38:20;8.97;;;6.87;;
9218;SDS011;4644;48.858;9.184;2023-04-06T02:40:47;9.30;;;7.53;;
9218;SDS011;4644;48.858;9.184;2023-04-06T02:43:14;10.13;;;7.87;;
9218;SDS011;4644;48.858;9.184;2023-04-06T02:45:42;8.10;;;7.00;;
9218;SDS011;4644;48.858;9.184;2023-04-06T02:48:10;12.07;;;7.70;;
9218;SDS011;4644;48.858;9.184;2023-04-06T02:50:38;10.87;;;7.50;;
9218;SDS011;4644;48.858;9.184;2023-04-06T02:53:05;11.20;;;7.83;;
9218;SDS011;4644;48.858;9.184;2023-04-06T02:55:32;11.27;;;7.80;;
9218;SDS011;4644;48.858;9.184;2023-04-06T02:58:00;9.17;;;7.60;;
9218;SDS011;4644;48.858;9.184;2023-04-06T03:00:27;9.87;;;7.30;;
9218;SDS011;4644;48.858;9.184;2023-04-06T03:02:54;12.13;;;8.10;;
9218;SDS011;4644;48.858;9.184;2023-04-06T03:05:21;10.67;;;8.43;;
9218;SDS011;4644;48.858;9.184;2023-04-06T03:07:50;11.53;;;8.20;;
9218;SDS011;4644;48.858;9.184;2023-04-06T03:10:17;9.63;;;7.17;;
9218;SDS011;4644;48.858;9.184;2023-04-06T03:12:44;11.60;;;7.97;;
9218;SDS011;4644;48.858;9.184;2023-04-06T03:15:11;12.70;;;9.03;;
9218;SDS011;4644;48.858;9.184;2023-04-06T03:17:38;12.77;;;9.07;;
9218;SDS011;4644;48.858;9.184;2023-04-06T03:20:06;9.97;;;7.70;;
9218;SDS011;4644;48.858;9.184;2023-04-06T03:22:33;11.70;;;8.70;;
9218;SDS011;4644;48.858;9.184;2023-04-06T03:25:02;10.57;;;8.37;;
9218;SDS011;4644;48.858;9.184;2023-04-06T03:27:29;11.63;;;8.57;;
9218;SDS011;4644;48.858;9.184;2023-04-06T03:29:57;11.27;;;8.00;;
9218;SDS011;4644;48.858;9.184;2023-04-06T03:32:25;9.20;;;7.93;;
9218;SDS011;4644;48.858;9.184;2023-04-06T03:34:52;10.67;;;8.40;;
9218;SDS011;4644;48.858;9.184;2023-04-06T03:37:19;10.37;;;8.37;;
9218;SDS011;4644;48.858;9.184;2023-04-06T03:39:46;9.80;;;8.00;;
9218;SDS011;4644;48.858;9.184;2023-04-06T03:42:14;13.60;;;8.23;;
9218;SDS011;4644;48.858;9.184;2023-04-06T03:44:42;10.80;;;8.47;;
9218;SDS011;4644;48.858;9.184;2023-04-06T03:47:09;10.20;;;8.07;;
9218;SDS011;4644;48.858;9.184;2023-04-06T03:49:36;12.20;;;7.43;;
9218;SDS011;4644;48.858;9.184;2023-04-06T03:52:03;14.73;;;8.60;;
9218;SDS011;4644;48.858;9.184;2023-04-06T03:54:30;9.83;;;7.70;;
9218;SDS011;4644;48.858;9.184;2023-04-06T03:56:57;13.30;;;8.30;;
9218;SDS011;4644;48.858;9.184;2023-04-06T03:59:26;12.20;;;8.77;;
9218;SDS011;4644;48.858;9.184;2023-04-06T04:01:53;10.70;;;8.00;;
9218;SDS011;4644;48.858;9.184;2023-04-06T04:04:21;12.77;;;8.17;;
9218;SDS011;4644;48.858;9.184;2023-04-06T04:06:48;15.93;;;8.60;;
9218;SDS011;4644;48.858;9.184;2023-04-06T04:09:15;12.27;;;8.80;;
9218;SDS011;4644;48.858;9.184;2023-04-06T04:11:42;11.37;;;8.70;;
9218;SDS011;4644;48.858;9.184;2023-04-06T04:14:09;16.83;;;9.33;;
9218;SDS011;4644;48.858;9.184;2023-04-06T04:16:38;13.50;;;9.77;;
9218;SDS011;4644;48.858;9.184;2023-04-06T04:19:06;12.77;;;9.03;;
9218;SDS011;4644;48.858;9.184;2023-04-06T04:21:33;11.30;;;8.60;;
9218;SDS011;4644;48.858;9.184;2023-04-06T04:24:08;12.90;;;9.40;;
9218;SDS011;4644;48.858;9.184;2023-04-06T04:26:35;14.83;;;9.43;;
9218;SDS011;4644;48.858;9.184;2023-04-06T04:29:02;16.40;;;10.33;;
9218;SDS011;4644;48.858;9.184;2023-04-06T04:31:29;15.27;;;9.37;;
9218;SDS011;4644;48.858;9.184;2023-04-06T04:33:59;14.50;;;9.07;;
9218;SDS011;4644;48.858;9.184;2023-04-06T04:36:26;11.00;;;8.53;;
9218;SDS011;4644;48.858;9.184;2023-04-06T04:38:53;14.33;;;9.90;;
9218;SDS011;4644;48.858;9.184;2023-04-06T04:41:21;19.53;;;9.80;;
9218;SDS011;4644;48.858;9.184;2023-04-06T04:43:48;12.50;;;9.30;;
9218;SDS011;4644;48.858;9.184;2023-04-06T04:46:15;14.77;;;9.63;;
9218;SDS011;4644;48.858;9.184;2023-04-06T04:48:42;13.43;;;9.97;;
9218;SDS011;4644;48.858;9.184;2023-04-06T04:51:10;14.40;;;9.77;;
9218;SDS011;4644;48.858;9.184;2023-04-06T04:53:37;14.00;;;9.47;;
9218;SDS011;4644;48.858;9.184;2023-04-06T04:56:05;14.00;;;10.20;;
9218;SDS011;4644;48.858;9.184;2023-04-06T04:58:32;17.53;;;9.97;;
9218;SDS011;4644;48.858;9.184;2023-04-06T05:00:59;12.77;;;10.13;;
9218;SDS011;4644;48.858;9.184;2023-04-06T05:03:26;19.27;;;10.57;;
9218;SDS011;4644;48.858;9.184;2023-04-06T05:05:56;14.67;;;10.87;;
9218;SDS011;4644;48.858;9.184;2023-04-06T05:08:24;14.83;;;9.93;;
9218;SDS011;4644;48.858;9.184;2023-04-06T05:10:52;15.63;;;10.73;;
9218;SDS011;4644;48.858;9.184;2023-04-06T05:13:19;16.57;;;10.40;;
9218;SDS011;4644;48.858;9.184;2023-04-06T05:15:46;15.00;;;10.30;;
9218;SDS011;4644;48.858;9.184;2023-04-06T05:18:13;17.67;;;10.23;;
9218;SDS011;4644;48.858;9.184;2023-04-06T05:20:41;15.27;;;10.27;;
9218;SDS011;4644;48.858;9.184;2023-04-06T05:23:09;13.93;;;9.87;;
9218;SDS011;4644;48.858;9.184;2023-04-06T05:25:38;18.57;;;10.57;;
9218;SDS011;4644;48.858;9.184;2023-04-06T05:28:06;14.53;;;10.23;;
9218;SDS011;4644;48.858;9.184;2023-04-06T05:30:33;15.63;;;9.83;;
9218;SDS011;4644;48.858;9.184;2023-04-06T05:33:01;16.03;;;11.03;;
9218;SDS011;4644;48.858;9.184;2023-04-06T05:35:28;14.63;;;10.33;;
9218;SDS011;4644;48.858;9.184;2023-04-06T05:37:55;14.07;;;10.30;;
9218;SDS011;4644;48.858;9.184;2023-04-06T05:40:22;14.40;;;10.57;;
9218;SDS011;4644;48.858;9.184;2023-04-06T05:42:51;16.87;;;10.60;;
9218;SDS011;4644;48.858;9.184;2023-04-06T05:45:19;13.73;;;10.10;;
9218;SDS011;4644;48.858;9.184;2023-04-06T05:47:46;15.97;;;10.37;;
9218;SDS011;4644;48.858;9.184;2023-04-06T05:50:14;17.47;;;11.20;;
9218;SDS011;4644;48.858;9.184;2023-04-06T05:52:41;15.13;;;10.43;;
9218;SDS011;4644;48.858;9.184;2023-04-06T05:55:11;15.13;;;10.20;;
9218;SDS011;4644;48.858;9.184;2023-04-06T05:57:38;12.70;;;9.97;;
9218;SDS011;4644;48.858;9.184;2023-04-06T06:00:08;18.57;;;10.43;;
9218;SDS011;4644;48.858;9.184;2023-04-06T06:02:38;11.93;;;9.83;;
9218;SDS011;4644;48.858;9.184;2023-04-06T06:05:07;15.97;;;10.37;;
9218;SDS011;4644;48.858;9.184;2023-04-06T06:07:35;17.50;;;10.63;;
9218;SDS011;4644;48.858;9.184;2023-04-06T06:10:02;16.43;;;10.00;;
9218;SDS011;4644;48.858;9.184;2023-04-06T06:12:29;17.33;;;10.43;;
9218;SDS011;4644;48.858;9.184;2023-04-06T06:14:57;13.13;;;10.00;;
9218;SDS011;4644;48.858;9.184;2023-04-06T06:17:27;14.83;;;9.90;;
9218;SDS011;4644;48.858;9.184;2023-04-06T06:19:54;19.40;;;10.70;;
9218;SDS011;4644;48.858;9.184;2023-04-06T06:22:21;16.10;;;10.03;;
9218;SDS011;4644;48.858;9.184;2023-04-06T06:24:48;16.53;;;10.50;;
9218;SDS011;4644;48.858;9.184;2023-04-06T06:27:16;14.93;;;10.63;;
9218;SDS011;4644;48.858;9.184;2023-04-06T06:29:43;16.17;;;10.40;;
9218;SDS011;4644;48.858;9.184;2023-04-06T06:32:10;13.37;;;9.53;;
9218;SDS011;4644;48.858;9.184;2023-04-06T06:34:38;13.43;;;9.53;;
9218;SDS011;4644;48.858;9.184;2023-04-06T06:37:06;14.27;;;9.57;;
9218;SDS011;4644;48.858;9.184;2023-04-06T06:39:33;13.10;;;9.47;;
9218;SDS011;4644;48.858;9.184;2023-04-06T06:42:00;15.80;;;9.23;;
9218;SDS011;4644;48.858;9.184;2023-04-06T06:44:27;16.27;;;9.07;;
9218;SDS011;4644;48.858;9.184;2023-04-06T06:46:54;19.43;;;10.20;;
9218;SDS011;4644;48.858;9.184;2023-04-06T06:49:21;12.93;;;9.77;;
9218;SDS011;4644;48.858;9.184;2023-04-06T06:51:50;17.03;;;9.57;;
9218;SDS011;4644;48.858;9.184;2023-04-06T06:54:17;14.80;;;9.60;;
9218;SDS011;4644;48.858;9.184;2023-04-06T06:56:44;12.87;;;9.10;;
9218;SDS011;4644;48.858;9.184;2023-04-06T06:59:11;18.83;;;9.47;;
9218;SDS011;4644;48.858;9.184;2023-04-06T07:01:38;22.40;;;9.80;;
9218;SDS011;4644;48.858;9.184;2023-04-06T07:04:06;14.50;;;9.27;;
9218;SDS011;4644;48.858;9.184;2023-04-06T07:06:34;12.67;;;9.30;;
9218;SDS011;4644;48.858;9.184;2023-04-06T07:09:03;17.57;;;8.53;;
9218;SDS011;4644;48.858;9.184;2023-04-06T07:11:30;17.53;;;9.00;;
9218;SDS011;4644;48.858;9.184;2023-04-06T07:13:57;13.43;;;9.57;;
9218;SDS011;4644;48.858;9.184;2023-04-06T07:16:25;11.07;;;8.43;;
9218;SDS011;4644;48.858;9.184;2023-04-06T07:18:54;12.37;;;8.77;;
9218;SDS011;4644;48.858;9.184;2023-04-06T07:21:21;10.23;;;8.10;;
9218;SDS011;4644;48.858;9.184;2023-04-06T07:23:48;12.27;;;8.13;;
9218;SDS011;4644;48.858;9.184;2023-04-06T07:26:17;11.17;;;8.07;;
9218;SDS011;4644;48.858;9.184;2023-04-06T07:28:44;9.47;;;7.50;;
9218;SDS011;4644;48.858;9.184;2023-04-06T07:31:11;15.13;;;8.47;;
9218;SDS011;4644;48.858;9.184;2023-04-06T07:33:38;11.10;;;8.03;;
9218;SDS011;4644;48.858;9.184;2023-04-06T07:36:06;12.77;;;8.27;;
9218;SDS011;4644;48.858;9.184;2023-04-06T07:38:33;10.63;;;7.67;;
9218;SDS011;4644;48.858;9.184;2023-04-06T07:41:00;9.17;;;7.40;;
9218;SDS011;4644;48.858;9.184;2023-04-06T07:43:30;12.27;;;7.70;;
9218;SDS011;4644;48.858;9.184;2023-04-06T07:45:57;11.70;;;8.23;;
9218;SDS011;4644;48.858;9.184;2023-04-06T07:48:25;15.50;;;7.93;;
9218;SDS011;4644;48.858;9.184;2023-04-06T07:51:02;18.63;;;8.03;;
9218;SDS011;4644;48.858;9.184;2023-04-06T07:53:30;9.67;;;7.70;;
9218;SDS011;4644;48.858;9.184;2023-04-06T07:55:57;9.30;;;7.93;;
9218;SDS011;4644;48.858;9.184;2023-04-06T07:58:24;10.27;;;7.90;;
9218;SDS011;4644;48.858;9.184;2023-04-06T08:00:53;10.07;;;7.87;;
9218;SDS011;4644;48.858;9.184;2023-04-06T08:03:21;10.47;;;7.57;;
9218;SDS011;4644;48.858;9.184;2023-04-06T08:05:50;10.93;;;7.73;;
9218;SDS011;4644;48.858;9.184;2023-04-06T08:08:18;12.63;;;8.13;;
9218;SDS011;4644;48.858;9.184;2023-04-06T08:10:46;12.67;;;7.43;;
9218;SDS011;4644;48.858;9.184;2023-04-06T08:13:13;39.40;;;9.33;;
9218;SDS011;4644;48.858;9.184;2023-04-06T08:15:41;12.10;;;7.33;;
9218;SDS011;4644;48.858;9.184;2023-04-06T08:18:09;10.90;;;7.87;;
9218;SDS011;4644;48.858;9.184;2023-04-06T08:20:37;10.37;;;7.60;;
9218;SDS011;4644;48.858;9.184;2023-04-06T08:23:05;17.10;;;7.87;;
9218;SDS011;4644;48.858;9.184;2023-04-06T08:25:35;14.87;;;7.93;;
9218;SDS011;4644;48.858;9.184;2023-04-06T08:28:03;18.20;;;8.13;;
9218;SDS011;4644;48.858;9.184;2023-04-06T08:30:30;10.63;;;7.80;;
9218;SDS011;4644;48.858;9.184;2023-04-06T08:32:57;9.23;;;7.20;;
9218;SDS011;4644;48.858;9.184;2023-04-06T08:35:26;12.03;;;8.00;;
9218;SDS011;4644;48.858;9.184;2023-04-06T08:37:53;12.07;;;7.57;;
9218;SDS011;4644;48.858;9.184;2023-04-06T08:40:20;8.73;;;7.10;;
9218;SDS011;4644;48.858;9.184;2023-04-06T08:42:49;9.00;;;6.70;;
9218;SDS011;4644;48.858;9.184;2023-04-06T08:45:18;9.83;;;6.83;;
9218;SDS011;4644;48.858;9.184;2023-04-06T08:47:46;9.57;;;7.50;;
9218;SDS011;4644;48.858;9.184;2023-04-06T08:50:14;10.50;;;7.10;;
9218;SDS011;4644;48.858;9.184;2023-04-06T08:52:44;9.67;;;6.90;;
9218;SDS011;4644;48.858;9.184;2023-04-06T08:55:13;11.20;;;7.47;;
9218;SDS011;4644;48.858;9.184;2023-04-06T08:57:42;9.07;;;6.70;;
9218;SDS011;4644;48.858;9.184;2023-04-06T09:00:12;12.70;;;7.53;;
9218;SDS011;4644;48.858;9.184;2023-04-06T09:02:41;11.20;;;6.50;;
9218;SDS011;4644;48.858;9.184;2023-04-06T09:05:13;7.67;;;6.07;;
9218;SDS011;4644;48.858;9.184;2023-04-06T09:07:40;11.00;;;6.70;;
9218;SDS011;4644;48.858;9.184;2023-04-06T09:10:09;11.63;;;7.13;;
9218;SDS011;4644;48.858;9.184;2023-04-06T09:12:36;10.87;;;7.03;;
9218;SDS011;4644;48.858;9.184;2023-04-06T09:15:04;10.13;;;7.20;;
9218;SDS011;4644;48.858;9.184;2023-04-06T09:17:32;9.03;;;7.10;;
9218;SDS011;4644;48.858;9.184;2023-04-06T09:19:59;8.63;;;6.90;;
9218;SDS011;4644;48.858;9.184;2023-04-06T09:22:34;8.37;;;6.43;;
9218;SDS011;4644;48.858;9.184;2023-04-06T09:25:02;7.80;;;6.57;;
9218;SDS011;4644;48.858;9.184;2023-04-06T09:27:32;8.27;;;6.27;;
9218;SDS011;4644;48.858;9.184;2023-04-06T09:30:04;8.57;;;6.27;;
9218;SDS011;4644;48.858;9.184;2023-04-06T09:32:43;8.77;;;6.77;;
9218;SDS011;4644;48.858;9.184;2023-04-06T09:35:12;7.73;;;6.13;;
9218;SDS011;4644;48.858;9.184;2023-04-06T09:37:39;10.27;;;7.00;;
9218;SDS011;4644;48.858;9.184;2023-04-06T09:40:06;8.53;;;6.80;;
9218;SDS011;4644;48.858;9.184;2023-04-06T09:42:36;8.87;;;7.00;;
9218;SDS011;4644;48.858;9.184;2023-04-06T09:45:03;9.40;;;6.83;;
9218;SDS011;4644;48.858;9.184;2023-04-06T09:47:31;8.87;;;7.13;;
9218;SDS011;4644;48.858;9.184;2023-04-06T09:49:59;11.20;;;7.30;;
9218;SDS011;4644;48.858;9.184;2023-04-06T09:52:27;10.93;;;6.80;;
9218;SDS011;4644;48.858;9.184;2023-04-06T09:54:59;11.60;;;7.07;;
9218;SDS011;4644;48.858;9.184;2023-04-06T09:57:30;9.53;;;7.10;;
9218;SDS011;4644;48.858;9.184;2023-04-06T10:00:03;11.73;;;7.20;;
9218;SDS011;4644;48.858;9.184;2023-04-06T10:02:35;9.33;;;6.17;;
9218;SDS011;4644;48.858;9.184;2023-04-06T10:05:13;8.57;;;6.90;;
9218;SDS011;4644;48.858;9.184;2023-04-06T10:07:46;9.77;;;6.27;;
9218;SDS011;4644;48.858;9.184;2023-04-06T10:10:16;6.13;;;5.33;;
9218;SDS011;4644;48.858;9.184;2023-04-06T10:12:43;6.93;;;5.37;;
9218;SDS011;4644;48.858;9.184;2023-04-06T10:15:13;7.63;;;6.00;;
9218;SDS011;4644;48.858;9.184;2023-04-06T10:17:40;8.57;;;6.93;;
9218;SDS011;4644;48.858;9.184;2023-04-06T10:20:09;7.70;;;6.63;;
9218;SDS011;4644;48.858;9.184;2023-04-06T10:22:41;7.57;;;6.20;;
9218;SDS011;4644;48.858;9.184;2023-04-06T10:25:16;9.33;;;7.47;;
9218;SDS011;4644;48.858;9.184;2023-04-06T10:27:43;9.13;;;7.23;;
9218;SDS011;4644;48.858;9.184;2023-04-06T10:30:10;10.50;;;7.40;;
9218;SDS011;4644;48.858;9.184;2023-04-06T10:32:42;9.60;;;7.10;;
9218;SDS011;4644;48.858;9.184;2023-04-06T10:35:09;10.63;;;7.57;;
9218;SDS011;4644;48.858;9.184;2023-04-06T10:37:49;9.53;;;7.40;;
9218;SDS011;4644;48.858;9.184;2023-04-06T10:40:18;9.00;;;6.93;;
9218;SDS011;4644;48.858;9.184;2023-04-06T10:42:46;7.73;;;6.93;;
9218;SDS011;4644;48.858;9.184;2023-04-06T10:45:21;8.53;;;6.77;;
9218;SDS011;4644;48.858;9.184;2023-04-06T10:47:49;9.50;;;7.27;;
9218;SDS011;4644;48.858;9.184;2023-04-06T10:50:19;8.93;;;7.37;;
9218;SDS011;4644;48.858;9.184;2023-04-06T10:52:47;8.40;;;7.47;;
9218;SDS011;4644;48.858;9.184;2023-04-06T10:55:26;8.40;;;6.93;;
9218;SDS011;4644;48.858;9.184;2023-04-06T10:57:54;9.23;;;6.93;;
9218;SDS011;4644;48.858;9.184;2023-04-06T11:00:22;10.10;;;7.63;;
9218;SDS011;4644;48.858;9.184;2023-04-06T11:02:50;10.10;;;7.47;;
9218;SDS011;4644;48.858;9.184;2023-04-06T11:05:18;7.70;;;6.90;;
9218;SDS011;4644;48.858;9.184;2023-04-06T11:07:45;10.33;;;6.87;;
9218;SDS011;4644;48.858;9.184;2023-04-06T11:10:20;10.27;;;7.77;;
9218;SDS011;4644;48.858;9.184;2023-04-06T11:12:52;8.70;;;6.83;;
9218;SDS011;4644;48.858;9.184;2023-04-06T11:15:20;9.23;;;7.10;;
9218;SDS011;4644;48.858;9.184;2023-04-06T11:17:48;10.43;;;6.00;;
9218;SDS011;4644;48.858;9.184;2023-04-06T11:20:16;11.10;;;7.47;;
9218;SDS011;4644;48.858;9.184;2023-04-06T11:22:48;8.57;;;6.80;;
9218;SDS011;4644;48.858;9.184;2023-04-06T11:25:18;10.90;;;6.87;;
9218;SDS011;4644;48.858;9.184;2023-04-06T11:27:45;9.40;;;7.00;;
9218;SDS011;4644;48.858;9.184;2023-04-06T11:30:13;9.00;;;7.00;;
9218;SDS011;4644;48.858;9.184;2023-04-06T11:32:41;8.60;;;6.90;;
9218;SDS011;4644;48.858;9.184;2023-04-06T11:35:12;8.77;;;6.90;;
9218;SDS011;4644;48.858;9.184;2023-04-06T11:37:46;7.93;;;6.73;;
9218;SDS011;4644;48.858;9.184;2023-04-06T11:40:14;7.07;;;6.37;;
9218;SDS011;4644;48.858;9.184;2023-04-06T11:42:42;7.80;;;6.70;;
9218;SDS011;4644;48.858;9.184;2023-04-06T11:45:17;8.63;;;6.40;;
9218;SDS011;4644;48.858;9.184;2023-04-06T11:47:44;7.13;;;6.43;;
9218;SDS011;4644;48.858;9.184;2023-04-06T11:50:13;8.10;;;6.50;;
9218;SDS011;4644;48.858;9.184;2023-04-06T11:52:41;7.33;;;6.50;;
9218;SDS011;4644;48.858;9.184;2023-04-06T11:55:18;7.60;;;6.23;;
9218;SDS011;4644;48.858;9.184;2023-04-06T11:57:45;7.10;;;5.93;;
9218;SDS011;4644;48.858;9.184;2023-04-06T12:00:13;6.43;;;5.47;;
9218;SDS011;4644;48.858;9.184;2023-04-06T12:02:45;7.83;;;6.03;;
9218;SDS011;4644;48.858;9.184;2023-04-06T12:05:14;9.77;;;5.93;;
9218;SDS011;4644;48.858;9.184;2023-04-06T12:07:41;6.57;;;5.67;;
9218;SDS011;4644;48.858;9.184;2023-04-06T12:10:08;39.57;;;11.73;;
9218;SDS011;4644;48.858;9.184;2023-04-06T12:12:35;12.87;;;7.53;;
9218;SDS011;4644;48.858;9.184;2023-04-06T12:15:03;15.37;;;7.37;;
9218;SDS011;4644;48.858;9.184;2023-04-06T12:17:31;9.10;;;6.43;;
9218;SDS011;4644;48.858;9.184;2023-04-06T12:19:58;7.70;;;6.17;;
9218;SDS011;4644;48.858;9.184;2023-04-06T12:22:26;29.40;;;10.97;;
9218;SDS011;4644;48.858;9.184;2023-04-06T12:24:53;21.07;;;9.43;;
9218;SDS011;4644;48.858;9.184;2023-04-06T12:27:21;10.47;;;6.47;;
9218;SDS011;4644;48.858;9.184;2023-04-06T12:29:51;6.60;;;5.73;;
9218;SDS011;4644;48.858;9.184;2023-04-06T12:32:18;6.73;;;5.53;;
9218;SDS011;4644;48.858;9.184;2023-04-06T12:34:45;7.47;;;5.70;;
9218;SDS011;4644;48.858;9.184;2023-04-06T12:37:13;12.40;;;6.17;;
9218;SDS011;4644;48.858;9.184;2023-04-06T12:39:42;11.03;;;6.83;;
9218;SDS011;4644;48.858;9.184;2023-04-06T12:42:09;7.57;;;6.10;;
9218;SDS011;4644;48.858;9.184;2023-04-06T12:44:37;21.50;;;6.07;;
9218;SDS011;4644;48.858;9.184;2023-04-06T12:47:04;12.13;;;5.80;;
9218;SDS011;4644;48.858;9.184;2023-04-06T12:49:32;8.60;;;5.80;;
9218;SDS011;4644;48.858;9.184;2023-04-06T12:51:59;7.93;;;5.30;;
9218;SDS011;4644;48.858;9.184;2023-04-06T12:54:28;7.47;;;5.53;;
9218;SDS011;4644;48.858;9.184;2023-04-06T12:56:56;8.87;;;5.20;;
9218;SDS011;4644;48.858;9.184;2023-04-06T12:59:23;7.30;;;5.43;;
9218;SDS011;4644;48.858;9.184;2023-04-06T13:01:59;8.23;;;5.33;;
9218;SDS011;4644;48.858;9.184;2023-04-06T13:04:26;6.20;;;5.47;;
9218;SDS011;4644;48.858;9.184;2023-04-06T13:06:53;7.67;;;5.87;;
9218;SDS011;4644;48.858;9.184;2023-04-06T13:09:20;7.00;;;4.93;;
9218;SDS011;4644;48.858;9.184;2023-04-06T13:11:48;7.83;;;5.00;;
9218;SDS011;4644;48.858;9.184;2023-04-06T13:14:17;7.40;;;5.40;;
9218;SDS011;4644;48.858;9.184;2023-04-06T13:16:44;6.90;;;5.20;;
9218;SDS011;4644;48.858;9.184;2023-04-06T13:19:14;6.70;;;5.13;;
9218;SDS011;4644;48.858;9.184;2023-04-06T13:21:41;7.03;;;5.60;;
9218;SDS011;4644;48.858;9.184;2023-04-06T13:24:08;7.60;;;5.70;;
9218;SDS011;4644;48.858;9.184;2023-04-06T13:26:36;7.00;;;5.17;;
9218;SDS011;4644;48.858;9.184;2023-04-06T13:29:03;7.93;;;5.50;;
9218;SDS011;4644;48.858;9.184;2023-04-06T13:31:31;9.23;;;6.07;;
9218;SDS011;4644;48.858;9.184;2023-04-06T13:33:59;8.13;;;5.70;;
9218;SDS011;4644;48.858;9.184;2023-04-06T13:36:26;6.50;;;5.07;;
9218;SDS011;4644;48.858;9.184;2023-04-06T13:38:53;7.80;;;5.90;;
9218;SDS011;4644;48.858;9.184;2023-04-06T13:41:22;5.30;;;4.73;;
9218;SDS011;4644;48.858;9.184;2023-04-06T13:43:50;6.57;;;5.17;;
9218;SDS011;4644;48.858;9.184;2023-04-06T13:46:18;7.03;;;5.40;;
9218;SDS011;4644;48.858;9.184;2023-04-06T13:48:47;6.90;;;4.97;;
9218;SDS011;4644;48.858;9.184;2023-04-06T13:51:14;6.97;;;5.43;;
9218;SDS011;4644;48.858;9.184;2023-04-06T13:53:42;7.73;;;5.30;;
9218;SDS011;4644;48.858;9.184;2023-04-06T13:56:09;8.30;;;5.03;;
9218;SDS011;4644;48.858;9.184;2023-04-06T13:58:36;9.23;;;5.47;;
9218;SDS011;4644;48.858;9.184;2023-04-06T14:01:03;7.00;;;5.17;;
9218;SDS011;4644;48.858;9.184;2023-04-06T14:03:32;8.03;;;5.07;;
9218;SDS011;4644;48.858;9.184;2023-04-06T14:06:01;8.10;;;4.80;;
9218;SDS011;4644;48.858;9.184;2023-04-06T14:08:35;5.97;;;4.87;;
9218;SDS011;4644;48.858;9.184;2023-04-06T14:11:02;9.33;;;5.17;;
9218;SDS011;4644;48.858;9.184;2023-04-06T14:13:30;6.17;;;4.87;;
9218;SDS011;4644;48.858;9.184;2023-04-06T14:15:57;5.80;;;4.87;;
9218;SDS011;4644;48.858;9.184;2023-04-06T14:18:24;6.43;;;5.07;;
9218;SDS011;4644;48.858;9.184;2023-04-06T14:20:55;6.93;;;4.43;;
9218;SDS011;4644;48.858;9.184;2023-04-06T14:23:26;7.00;;;5.10;;
9218;SDS011;4644;48.858;9.184;2023-04-06T14:26:00;7.07;;;4.40;;
9218;SDS011;4644;48.858;9.184;2023-04-06T14:28:28;6.27;;;4.27;;
9218;SDS011;4644;48.858;9.184;2023-04-06T14:30:56;7.80;;;4.57;;
9218;SDS011;4644;48.858;9.184;2023-04-06T14:33:23;6.40;;;5.10;;
9218;SDS011;4644;48.858;9.184;2023-04-06T14:35:51;5.80;;;4.83;;
9218;SDS011;4644;48.858;9.184;2023-04-06T14:38:21;6.33;;;5.13;;
9218;SDS011;4644;48.858;9.184;2023-04-06T14:40:49;5.80;;;4.80;;
9218;SDS011;4644;48.858;9.184;2023-04-06T14:43:16;8.10;;;4.97;;
9218;SDS011;4644;48.858;9.184;2023-04-06T14:45:43;7.50;;;5.30;;
9218;SDS011;4644;48.858;9.184;2023-04-06T14:48:10;7.63;;;5.07;;
9218;SDS011;4644;48.858;9.184;2023-04-06T14:50:38;10.90;;;5.23;;
9218;SDS011;4644;48.858;9.184;2023-04-06T14:53:05;7.10;;;5.10;;
9218;SDS011;4644;48.858;9.184;2023-04-06T14:55:32;6.70;;;5.33;;
9218;SDS011;4644;48.858;9.184;2023-04-06T14:58:06;8.53;;;5.70;;
9218;SDS011;4644;48.858;9.184;2023-04-06T15:00:33;6.83;;;5.03;;
9218;SDS011;4644;48.858;9.184;2023-04-06T15:03:00;7.60;;;5.10;;
9218;SDS011;4644;48.858;9.184;2023-04-06T15:05:28;5.90;;;4.77;;
9218;SDS011;4644;48.858;9.184;2023-04-06T15:07:58;6.10;;;5.03;;
9218;SDS011;4644;48.858;9.184;2023-04-06T15:10:25;6.13;;;4.93;;